Flight Track Log - Related Links

Times and Time Zones

All times are in EDT time to prevent confusion due to time zone crossing. See the SKW6526 flight status page for this flight to view local times or setup timezone preferences in your user account.

Time Position Orientation Groundspeed Altitude Reporting Facility
EDT Latitude Longitude Course Direction KTS MPH feet Rate Location/Type
Fri 04:23:46 PM 33.9456 -118.4594 North 153 176 1,800  Level Los Angeles Center
Fri 04:24:48 PM 33.9406 -118.5361 266° West 215 247 3,600 2,081 Climbing Los Angeles Center
Fri 04:25:50 PM 33.9347 -118.6278 266° West 273 314 6,100 2,496 Climbing Los Angeles Center
Fri 04:26:53 PM 33.9969 -118.6958 318° Northwest 286 329 8,800 1,392 Climbing Los Angeles Center
Fri 04:27:55 PM 34.0733 -118.6750 13° North 287 330 9,000 97 Climbing Los Angeles Center
Fri 04:28:57 PM 34.1458 -118.6661 North 283 326 9,000 871 Level Los Angeles Center
Fri 04:29:00 PM 34.2961 -118.6000 North  Level FlightAware Approximate
Fri 04:29:59 PM 34.2269 -118.6794 352° North 292 336 10,800  Level Los Angeles Center
Fri 04:31:01 PM 34.3114 -118.6931 352° North 303 349 13,300 2,129 Climbing Los Angeles Center
Fri 04:32:03 PM 34.4142 -118.7081 353° North 312 359 15,200 1,452 Climbing Los Angeles Center
Fri 04:33:05 PM 34.5106 -118.7233 353° North 349 402 16,300 1,161 Climbing Los Angeles Center
Fri 04:34:07 PM 34.6069 -118.7639 341° North 367 422 17,600 1,258 Climbing Los Angeles Center
Fri 04:35:09 PM 34.7047 -118.7997 343° North 376 433 18,900 1,258 Climbing Los Angeles Center
Fri 04:36:11 PM 34.8064 -118.8050 358° North 371 427 20,200 1,258 Climbing Los Angeles Center
Fri 04:37:13 PM 34.9250 -118.8069 359° North 375 432 21,500 1,008 Climbing Los Angeles Center
Fri 04:38:16 PM 35.0308 -118.8069 360° North 378 435 22,300 1,056 Climbing Los Angeles Center
Fri 04:39:18 PM 35.1383 -118.8192 355° North 391 450 23,700 1,355 Climbing Los Angeles Center
Fri 04:40:20 PM 35.2436 -118.8392 351° North 388 447 25,100 1,210 Climbing Los Angeles Center
Fri 04:41:22 PM 35.3650 -118.8606 352° North 372 428 26,200 968 Climbing Los Angeles Center
Fri 04:42:24 PM 35.4714 -118.8800 352° North 380 437 27,100 774 Climbing Los Angeles Center
Fri 04:43:26 PM 35.5767 -118.8994 351° North 383 441 27,800 387 Climbing Los Angeles Center
Fri 04:44:28 PM 35.6819 -118.9197 351° North 383 441 27,900 74 Climbing Los Angeles Center
Fri 04:44:47 PM 35.7247 -118.9272 352° North 392 451 27,900  Level Oakland Center
Fri 04:45:49 PM 35.8339 -118.9469 352° North 397 457 27,900  Level Oakland Center
Fri 04:46:50 PM 35.9428 -118.9672 351° North 397 457 27,900  Level Oakland Center
Fri 04:47:52 PM 36.0500 -118.9867 352° North 392 451 27,900  Level Oakland Center
Fri 04:48:53 PM 36.1592 -119.0075 351° North 395 455 27,900  Level Oakland Center
Fri 04:49:55 PM 36.2664 -119.0269 352° North 393 452 27,900  Level Oakland Center
Fri 04:50:56 PM 36.3922 -119.0481 352° North 383 441 27,900  Level Oakland Center
Fri 04:51:58 PM 36.4967 -119.0686 351° North 380 437 27,900  Level Oakland Center
Fri 04:52:59 PM 36.6022 -119.0878 352° North 384 442 27,900  Level Oakland Center
Fri 04:54:00 PM 36.7081 -119.1078 351° North 385 443 27,900  Level Oakland Center
Fri 04:55:02 PM 36.8158 -119.1289 351° North 390 449 27,900  Level Oakland Center
Fri 04:56:03 PM 36.9233 -119.1503 351° North 393 452 27,900  Level Oakland Center
Fri 04:57:05 PM 37.0322 -119.1711 351° North 398 458 27,900  Level Oakland Center
Fri 04:58:06 PM 37.1400 -119.1925 351° North 393 452 27,900  Level Oakland Center
Fri 04:59:07 PM 37.2694 -119.2169 351° North 393 452 27,900  Level Oakland Center
Fri 05:00:09 PM 37.3783 -119.2386 351° North 409 471 27,900  Level Oakland Center
Fri 05:01:10 PM 37.4856 -119.2597 351° North 395 455 27,900  Level Oakland Center
Fri 05:02:12 PM 37.5933 -119.2806 351° North 396 456 27,900 -244 Level Oakland Center
Fri 05:03:13 PM 37.7011 -119.2953 354° North 387 445 27,400 -984 Descending Oakland Center
Fri 05:04:14 PM 37.8092 -119.3167 351° North 393 452 25,900 -1,463 Descending Oakland Center
Fri 05:05:16 PM 37.9183 -119.3369 352° North 395 455 24,400 -927 Descending Oakland Center
Fri 05:06:17 PM 38.0278 -119.3569 352° North 396 456 24,000 -195 Descending Oakland Center
Fri 05:07:19 PM 38.1347 -119.3797 350° North 394 453 24,000  Level Oakland Center
Fri 05:08:20 PM 38.2678 -119.4031 352° North 398 458 24,000  Level Oakland Center
Fri 05:09:22 PM 38.3783 -119.4250 351° North 400 460 24,000 -585 Level Oakland Center
Fri 05:10:23 PM 38.4894 -119.4469 351° North 403 464 22,800 -1,180 Descending Oakland Center
Fri 05:11:24 PM 38.6006 -119.4692 351° North 404 465 21,600 -1,171 Descending Oakland Center
Fri 05:12:26 PM 38.7097 -119.4906 351° North 399 459 20,400 -780 Descending Oakland Center
Fri 05:13:27 PM 38.8172 -119.5128 351° North 393 452 20,000 -341 Descending Oakland Center
Fri 05:14:29 PM 38.9217 -119.5339 351° North 385 443 19,700 -927 Descending Oakland Center
Fri 05:15:30 PM 39.0283 -119.5553 351° North 384 442 18,100 -1,366 Descending Oakland Center
Fri 05:16:32 PM 39.1314 -119.5758 351° North 379 436 16,900 -1,073 Descending Oakland Center
Fri 05:17:33 PM 39.2300 -119.5969 351° North 366 421 15,900 -1,707 Descending Oakland Center
Fri 05:18:35 PM 39.3450 -119.6478 341° North 365 420 13,400 -1,898 Descending Oakland Center
Fri 05:19:11 PM 39.4000 -119.6667 345° North 333 383 12,800 -1,438 Descending Northern Cal TRACON
Fri 05:20:11 PM 39.4833 -119.6833 351° North 288 331 11,100 -1,500 Descending Northern Cal TRACON
Fri 05:21:11 PM 39.5500 -119.7000 349° North 224 258 9,800 -2,100 Descending Northern Cal TRACON
Fri 05:22:11 PM 39.5833 -119.7333 322° Northwest 220 253 6,900 -2,250 Descending Northern Cal TRACON
Fri 05:23:11 PM 39.5500 -119.7667 218° Southwest 172 198 5,300 -1,600 Descending Northern Cal TRACON
Fri 05:25:00 PM 39.4991 -119.7681 247° West  Level Estimated
Fri 05:32:00 PM 39.4991 -119.7681 247° West  Level Estimated

Login

Don't have an account? Register now (free) for customized features, flight alerts, and more!